sensor_id;sensor_type;location;lat;lon;timestamp;pressure;altitude;pressure_sealevel;temperature;humidity
13732;BME280;6937;56.096;12.664;2023-03-04T00:00:25;101591.34;;;4.64;100.00
13732;BME280;6937;56.096;12.664;2023-03-04T00:02:51;101595.69;;;4.65;100.00
13732;BME280;6937;56.096;12.664;2023-03-04T00:05:16;101597.31;;;4.69;100.00
13732;BME280;6937;56.096;12.664;2023-03-04T00:07:41;101602.50;;;4.72;100.00
13732;BME280;6937;56.096;12.664;2023-03-04T00:10:07;101601.72;;;4.70;100.00
13732;BME280;6937;56.096;12.664;2023-03-04T00:12:33;101603.34;;;4.74;100.00
13732;BME280;6937;56.096;12.664;2023-03-04T00:14:58;101614.72;;;4.76;100.00
13732;BME280;6937;56.096;12.664;2023-03-04T00:17:23;101613.78;;;4.79;100.00
13732;BME280;6937;56.096;12.664;2023-03-04T00:19:49;101619.88;;;4.81;100.00
13732;BME280;6937;56.096;12.664;2023-03-04T00:22:14;101618.19;;;4.78;100.00
13732;BME280;6937;56.096;12.664;2023-03-04T00:24:40;101629.59;;;4.80;100.00
13732;BME280;6937;56.096;12.664;2023-03-04T00:27:05;101634.97;;;4.79;100.00
13732;BME280;6937;56.096;12.664;2023-03-04T00:29:30;101635.81;;;4.79;100.00
13732;BME280;6937;56.096;12.664;2023-03-04T00:31:56;101640.13;;;4.82;100.00
13732;BME280;6937;56.096;12.664;2023-03-04T00:34:21;101644.44;;;4.84;100.00
13732;BME280;6937;56.096;12.664;2023-03-04T00:36:47;101654.28;;;4.81;100.00
13732;BME280;6937;56.096;12.664;2023-03-04T00:39:12;101647.22;;;4.81;100.00
13732;BME280;6937;56.096;12.664;2023-03-04T00:41:38;101656.94;;;4.81;100.00
13732;BME280;6937;56.096;12.664;2023-03-04T00:44:04;101657.84;;;4.80;100.00
13732;BME280;6937;56.096;12.664;2023-03-04T00:46:29;101663.25;;;4.77;100.00
13732;BME280;6937;56.096;12.664;2023-03-04T00:48:55;101656.13;;;4.79;100.00
13732;BME280;6937;56.096;12.664;2023-03-04T00:51:20;101658.91;;;4.76;100.00
13732;BME280;6937;56.096;12.664;2023-03-04T00:53:45;101658.81;;;4.77;100.00
13732;BME280;6937;56.096;12.664;2023-03-04T00:56:11;101667.69;;;4.76;100.00
13732;BME280;6937;56.096;12.664;2023-03-04T00:58:37;101672.91;;;4.79;100.00
13732;BME280;6937;56.096;12.664;2023-03-04T01:01:05;101670.28;;;4.78;100.00
13732;BME280;6937;56.096;12.664;2023-03-04T01:03:30;101670.41;;;4.75;100.00
13732;BME280;6937;56.096;12.664;2023-03-04T01:05:57;101688.81;;;4.78;100.00
13732;BME280;6937;56.096;12.664;2023-03-04T01:08:22;101689.56;;;4.83;100.00
13732;BME280;6937;56.096;12.664;2023-03-04T01:10:48;101692.22;;;4.81;100.00
13732;BME280;6937;56.096;12.664;2023-03-04T01:13:13;101706.31;;;4.83;100.00
13732;BME280;6937;56.096;12.664;2023-03-04T01:15:38;101701.78;;;4.87;100.00
13732;BME280;6937;56.096;12.664;2023-03-04T01:18:04;101694.66;;;4.87;100.00
13732;BME280;6937;56.096;12.664;2023-03-04T01:20:29;101694.63;;;4.89;100.00
13732;BME280;6937;56.096;12.664;2023-03-04T01:22:55;101696.41;;;4.88;100.00
13732;BME280;6937;56.096;12.664;2023-03-04T01:25:20;101691.25;;;4.84;100.00
13732;BME280;6937;56.096;12.664;2023-03-04T01:27:45;101696.63;;;4.82;100.00
13732;BME280;6937;56.096;12.664;2023-03-04T01:30:11;101703.44;;;4.90;100.00
13732;BME280;6937;56.096;12.664;2023-03-04T01:32:37;101697.31;;;4.87;100.00
13732;BME280;6937;56.096;12.664;2023-03-04T01:35:02;101705.31;;;4.86;100.00
13732;BME280;6937;56.096;12.664;2023-03-04T01:37:27;101704.50;;;4.84;100.00
13732;BME280;6937;56.096;12.664;2023-03-04T01:39:53;101705.47;;;4.81;100.00
13732;BME280;6937;56.096;12.664;2023-03-04T01:42:20;101699.38;;;4.79;100.00
13732;BME280;6937;56.096;12.664;2023-03-04T01:44:47;101707.22;;;4.82;100.00
13732;BME280;6937;56.096;12.664;2023-03-04T01:47:13;101723.88;;;4.86;100.00
13732;BME280;6937;56.096;12.664;2023-03-04T01:49:39;101711.59;;;4.83;100.00
13732;BME280;6937;56.096;12.664;2023-03-04T01:52:05;101708.09;;;4.83;100.00
13732;BME280;6937;56.096;12.664;2023-03-04T01:54:34;101708.09;;;4.83;100.00
13732;BME280;6937;56.096;12.664;2023-03-04T01:57:00;101716.03;;;4.83;100.00
13732;BME280;6937;56.096;12.664;2023-03-04T01:59:29;101711.66;;;4.82;100.00
13732;BME280;6937;56.096;12.664;2023-03-04T02:01:59;101709.97;;;4.79;100.00
13732;BME280;6937;56.096;12.664;2023-03-04T02:04:28;101695.88;;;4.79;100.00
13732;BME280;6937;56.096;12.664;2023-03-04T02:06:55;101702.94;;;4.78;100.00
13732;BME280;6937;56.096;12.664;2023-03-04T02:09:22;101705.63;;;4.77;100.00
13732;BME280;6937;56.096;12.664;2023-03-04T02:11:49;101695.13;;;4.74;100.00
13732;BME280;6937;56.096;12.664;2023-03-04T02:14:16;101681.19;;;4.69;100.00
13732;BME280;6937;56.096;12.664;2023-03-04T02:16:42;101687.41;;;4.68;100.00
13732;BME280;6937;56.096;12.664;2023-03-04T02:19:32;101696.25;;;4.67;100.00
13732;BME280;6937;56.096;12.664;2023-03-04T02:22:01;101685.72;;;4.65;100.00
13732;BME280;6937;56.096;12.664;2023-03-04T02:26:57;101697.38;;;4.60;100.00
13732;BME280;6937;56.096;12.664;2023-03-04T02:29:23;101705.22;;;4.63;100.00
13732;BME280;6937;56.096;12.664;2023-03-04T02:31:50;101698.19;;;4.62;100.00
13732;BME280;6937;56.096;12.664;2023-03-04T02:34:19;101699.13;;;4.61;100.00
13732;BME280;6937;56.096;12.664;2023-03-04T02:36:46;101709.66;;;4.62;100.00
13732;BME280;6937;56.096;12.664;2023-03-04T02:41:57;101702.69;;;4.60;100.00
13732;BME280;6937;56.096;12.664;2023-03-04T02:44:25;101704.41;;;4.61;100.00
13732;BME280;6937;56.096;12.664;2023-03-04T02:46:52;101705.31;;;4.60;100.00
13732;BME280;6937;56.096;12.664;2023-03-04T02:49:18;101707.91;;;4.61;100.00
13732;BME280;6937;56.096;12.664;2023-03-04T02:51:44;101700.03;;;4.60;100.00
13732;BME280;6937;56.096;12.664;2023-03-04T02:54:17;101698.38;;;4.57;100.00
13732;BME280;6937;56.096;12.664;2023-03-04T02:56:50;101692.28;;;4.54;100.00
13732;BME280;6937;56.096;12.664;2023-03-04T02:59:16;101694.13;;;4.52;100.00
13732;BME280;6937;56.096;12.664;2023-03-04T03:01:42;101701.25;;;4.50;100.00
13732;BME280;6937;56.096;12.664;2023-03-04T03:04:08;101701.28;;;4.48;100.00
13732;BME280;6937;56.096;12.664;2023-03-04T03:06:34;101703.06;;;4.48;100.00
13732;BME280;6937;56.096;12.664;2023-03-04T03:08:59;101710.22;;;4.46;100.00
13732;BME280;6937;56.096;12.664;2023-03-04T03:11:25;101704.09;;;4.44;100.00
13732;BME280;6937;56.096;12.664;2023-03-04T03:13:50;101701.53;;;4.41;100.00
13732;BME280;6937;56.096;12.664;2023-03-04T03:16:15;101705.97;;;4.40;100.00
13732;BME280;6937;56.096;12.664;2023-03-04T03:18:41;101700.78;;;4.37;100.00
13732;BME280;6937;56.096;12.664;2023-03-04T03:21:06;101704.41;;;4.34;100.00
13732;BME280;6937;56.096;12.664;2023-03-04T03:23:32;101701.75;;;4.34;100.00
13732;BME280;6937;56.096;12.664;2023-03-04T03:25:57;101713.09;;;4.38;100.00
13732;BME280;6937;56.096;12.664;2023-03-04T03:28:23;101714.03;;;4.35;100.00
13732;BME280;6937;56.096;12.664;2023-03-04T03:30:48;101710.69;;;4.30;100.00
13732;BME280;6937;56.096;12.664;2023-03-04T03:33:13;101713.38;;;4.29;100.00
13732;BME280;6937;56.096;12.664;2023-03-04T03:35:39;101707.31;;;4.25;100.00
13732;BME280;6937;56.096;12.664;2023-03-04T03:38:04;101705.56;;;4.24;100.00
13732;BME280;6937;56.096;12.664;2023-03-04T03:40:30;101707.31;;;4.25;100.00
13732;BME280;6937;56.096;12.664;2023-03-04T03:42:55;101706.53;;;4.22;100.00
13732;BME280;6937;56.096;12.664;2023-03-04T03:45:20;101717.13;;;4.22;100.00
13732;BME280;6937;56.096;12.664;2023-03-04T03:47:46;101715.47;;;4.19;100.00
13732;BME280;6937;56.096;12.664;2023-03-04T03:50:11;101722.56;;;4.17;100.00
13732;BME280;6937;56.096;12.664;2023-03-04T03:52:37;101725.28;;;4.16;100.00
13732;BME280;6937;56.096;12.664;2023-03-04T03:55:02;101720.00;;;4.14;100.00
13732;BME280;6937;56.096;12.664;2023-03-04T03:57:28;101722.66;;;4.14;100.00
13732;BME280;6937;56.096;12.664;2023-03-04T03:59:54;101714.72;;;4.14;100.00
13732;BME280;6937;56.096;12.664;2023-03-04T04:02:20;101725.31;;;4.14;100.00
13732;BME280;6937;56.096;12.664;2023-03-04T04:04:46;101725.41;;;4.11;100.00
13732;BME280;6937;56.096;12.664;2023-03-04T04:07:11;101717.69;;;4.04;100.00
13732;BME280;6937;56.096;12.664;2023-03-04T04:09:37;101718.69;;;4.00;100.00
13732;BME280;6937;56.096;12.664;2023-03-04T04:12:04;101704.69;;;3.96;100.00
13732;BME280;6937;56.096;12.664;2023-03-04T04:14:30;101717.09;;;3.94;100.00
13732;BME280;6937;56.096;12.664;2023-03-04T04:16:55;101714.53;;;3.91;100.00
13732;BME280;6937;56.096;12.664;2023-03-04T04:19:21;101713.84;;;3.86;100.00
13732;BME280;6937;56.096;12.664;2023-03-04T04:21:46;101716.50;;;3.84;100.00
13732;BME280;6937;56.096;12.664;2023-03-04T04:24:12;101714.00;;;3.80;100.00
13732;BME280;6937;56.096;12.664;2023-03-04T04:26:38;101726.41;;;3.78;100.00
13732;BME280;6937;56.096;12.664;2023-03-04T04:29:03;101721.28;;;3.72;100.00
13732;BME280;6937;56.096;12.664;2023-03-04T04:31:29;101724.84;;;3.71;100.00
13732;BME280;6937;56.096;12.664;2023-03-04T04:33:54;101734.72;;;3.64;100.00
13732;BME280;6937;56.096;12.664;2023-03-04T04:36:19;101739.22;;;3.61;100.00
13732;BME280;6937;56.096;12.664;2023-03-04T04:38:45;101734.06;;;3.56;100.00
13732;BME280;6937;56.096;12.664;2023-03-04T04:41:18;101743.81;;;3.54;100.00
13732;BME280;6937;56.096;12.664;2023-03-04T04:43:44;101745.59;;;3.54;100.00
13732;BME280;6937;56.096;12.664;2023-03-04T04:46:09;101756.22;;;3.52;100.00
13732;BME280;6937;56.096;12.664;2023-03-04T04:48:35;101749.28;;;3.48;100.00
13732;BME280;6937;56.096;12.664;2023-03-04T04:51:00;101753.78;;;3.45;100.00
13732;BME280;6937;56.096;12.664;2023-03-04T04:53:25;101755.59;;;3.42;100.00
13732;BME280;6937;56.096;12.664;2023-03-04T04:55:51;101760.19;;;3.36;100.00
13732;BME280;6937;56.096;12.664;2023-03-04T04:58:16;101766.41;;;3.33;100.00
13732;BME280;6937;56.096;12.664;2023-03-04T05:00:41;101770.84;;;3.33;100.00
13732;BME280;6937;56.096;12.664;2023-03-04T05:03:07;101766.53;;;3.29;100.00
13732;BME280;6937;56.096;12.664;2023-03-04T05:05:33;101771.84;;;3.27;100.00
13732;BME280;6937;56.096;12.664;2023-03-04T05:07:58;101771.06;;;3.24;100.00
13732;BME280;6937;56.096;12.664;2023-03-04T05:10:23;101772.09;;;3.18;100.00
13732;BME280;6937;56.096;12.664;2023-03-04T05:12:49;101765.19;;;3.13;100.00
13732;BME280;6937;56.096;12.664;2023-03-04T05:15:14;101770.63;;;3.07;100.00
13732;BME280;6937;56.096;12.664;2023-03-04T05:17:40;101761.94;;;3.02;100.00
13732;BME280;6937;56.096;12.664;2023-03-04T05:20:06;101759.41;;;2.97;100.00
13732;BME280;6937;56.096;12.664;2023-03-04T05:22:33;101750.56;;;3.00;100.00
13732;BME280;6937;56.096;12.664;2023-03-04T05:24:58;101751.47;;;2.99;100.00
13732;BME280;6937;56.096;12.664;2023-03-04T05:27:23;101739.22;;;2.96;100.00
13732;BME280;6937;56.096;12.664;2023-03-04T05:29:49;101728.72;;;2.93;100.00
13732;BME280;6937;56.096;12.664;2023-03-04T05:32:14;101712.00;;;2.92;100.00
13732;BME280;6937;56.096;12.664;2023-03-04T05:34:40;101708.56;;;2.89;100.00
13732;BME280;6937;56.096;12.664;2023-03-04T05:37:05;101702.41;;;2.90;100.00
13732;BME280;6937;56.096;12.664;2023-03-04T05:39:30;101702.41;;;2.90;100.00
13732;BME280;6937;56.096;12.664;2023-03-04T05:41:56;101696.34;;;2.86;100.00
13732;BME280;6937;56.096;12.664;2023-03-04T05:44:21;101698.94;;;2.88;100.00
13732;BME280;6937;56.096;12.664;2023-03-04T05:46:46;101706.88;;;2.88;100.00
13732;BME280;6937;56.096;12.664;2023-03-04T05:49:12;101691.13;;;2.83;100.00
13732;BME280;6937;56.096;12.664;2023-03-04T05:51:37;101693.81;;;2.82;100.00
13732;BME280;6937;56.096;12.664;2023-03-04T05:54:03;101689.50;;;2.78;100.00
13732;BME280;6937;56.096;12.664;2023-03-04T05:56:28;101689.50;;;2.78;100.00
13732;BME280;6937;56.096;12.664;2023-03-04T05:58:58;101684.28;;;2.76;100.00
13732;BME280;6937;56.096;12.664;2023-03-04T06:01:24;101693.97;;;2.76;100.00
13732;BME280;6937;56.096;12.664;2023-03-04T06:03:49;101689.59;;;2.75;100.00
13732;BME280;6937;56.096;12.664;2023-03-04T06:06:15;101689.66;;;2.73;100.00
13732;BME280;6937;56.096;12.664;2023-03-04T06:08:40;101686.13;;;2.73;100.00
13732;BME280;6937;56.096;12.664;2023-03-04T06:11:06;101696.69;;;2.73;100.00
13732;BME280;6937;56.096;12.664;2023-03-04T06:13:31;101701.09;;;2.72;100.00
13732;BME280;6937;56.096;12.664;2023-03-04T06:15:58;101700.41;;;2.66;100.00
13732;BME280;6937;56.096;12.664;2023-03-04T06:18:25;101686.34;;;2.65;100.00
13732;BME280;6937;56.096;12.664;2023-03-04T06:21:01;101682.84;;;2.63;100.00
13732;BME280;6937;56.096;12.664;2023-03-04T06:23:27;101683.72;;;2.64;100.00
13732;BME280;6937;56.096;12.664;2023-03-04T06:25:53;101682.84;;;2.63;100.00
13732;BME280;6937;56.096;12.664;2023-03-04T06:28:19;101677.63;;;2.62;100.00
13732;BME280;6937;56.096;12.664;2023-03-04T06:30:45;101688.09;;;2.65;100.00
13732;BME280;6937;56.096;12.664;2023-03-04T06:33:10;101685.47;;;2.65;100.00
13732;BME280;6937;56.096;12.664;2023-03-04T06:35:36;101683.63;;;2.67;100.00
13732;BME280;6937;56.096;12.664;2023-03-04T06:38:01;101682.81;;;2.65;100.00
13732;BME280;6937;56.096;12.664;2023-03-04T06:40:26;101686.34;;;2.65;100.00
13732;BME280;6937;56.096;12.664;2023-03-04T06:42:52;101688.00;;;2.69;100.00
13732;BME280;6937;56.096;12.664;2023-03-04T06:45:17;101682.75;;;2.66;100.00
13732;BME280;6937;56.096;12.664;2023-03-04T06:47:43;101688.88;;;2.70;100.00
13732;BME280;6937;56.096;12.664;2023-03-04T06:50:10;101692.28;;;2.73;100.00
13732;BME280;6937;56.096;12.664;2023-03-04T06:52:36;101702.69;;;2.78;100.00
13732;BME280;6937;56.096;12.664;2023-03-04T06:55:02;101706.19;;;2.80;100.00
13732;BME280;6937;56.096;12.664;2023-03-04T06:57:27;101708.72;;;2.84;100.00
13732;BME280;6937;56.096;12.664;2023-03-04T06:59:53;101709.50;;;2.88;100.00
13732;BME280;6937;56.096;12.664;2023-03-04T07:02:18;101709.44;;;2.91;100.00
13732;BME280;6937;56.096;12.664;2023-03-04T07:04:43;101710.22;;;2.93;100.00
13732;BME280;6937;56.096;12.664;2023-03-04T07:07:10;101693.59;;;2.91;100.00
13732;BME280;6937;56.096;12.664;2023-03-04T07:09:35;101698.78;;;2.94;100.00
13732;BME280;6937;56.096;12.664;2023-03-04T07:12:01;101673.34;;;2.90;100.00
13732;BME280;6937;56.096;12.664;2023-03-04T07:14:26;101655.75;;;2.90;100.00
13732;BME280;6937;56.096;12.664;2023-03-04T07:16:52;101623.16;;;2.91;100.00
13732;BME280;6937;56.096;12.664;2023-03-04T07:19:17;101611.56;;;2.97;100.00
13732;BME280;6937;56.096;12.664;2023-03-04T07:21:43;101583.47;;;2.95;100.00
13732;BME280;6937;56.096;12.664;2023-03-04T07:24:08;101562.34;;;2.95;100.00
13732;BME280;6937;56.096;12.664;2023-03-04T07:26:33;101535.97;;;2.93;100.00
13732;BME280;6937;56.096;12.664;2023-03-04T07:28:59;101517.44;;;2.96;100.00
13732;BME280;6937;56.096;12.664;2023-03-04T07:31:28;101509.53;;;2.96;100.00
13732;BME280;6937;56.096;12.664;2023-03-04T07:33:59;101485.66;;;2.99;100.00
13732;BME280;6937;56.096;12.664;2023-03-04T07:36:25;101476.66;;;3.06;100.00
13732;BME280;6937;56.096;12.664;2023-03-04T07:38:51;101459.91;;;3.07;100.00
13732;BME280;6937;56.096;12.664;2023-03-04T07:41:18;101452.50;;;3.18;100.00
13732;BME280;6937;56.096;12.664;2023-03-04T07:43:45;101427.88;;;3.18;100.00
13732;BME280;6937;56.096;12.664;2023-03-04T07:46:10;101408.28;;;3.25;100.00
13732;BME280;6937;56.096;12.664;2023-03-04T07:48:36;101395.00;;;3.26;100.00
13732;BME280;6937;56.096;12.664;2023-03-04T07:51:23;101393.28;;;3.25;100.00
13732;BME280;6937;56.096;12.664;2023-03-04T07:53:51;101376.47;;;3.28;100.00
13732;BME280;6937;56.096;12.664;2023-03-04T07:56:23;101363.38;;;3.25;100.00
13732;BME280;6937;56.096;12.664;2023-03-04T07:58:49;101354.72;;;3.20;100.00
13732;BME280;6937;56.096;12.664;2023-03-04T08:01:20;101348.50;;;3.22;100.00
13732;BME280;6937;56.096;12.664;2023-03-04T08:03:46;101352.81;;;3.25;100.00
13732;BME280;6937;56.096;12.664;2023-03-04T08:06:13;101330.03;;;3.21;100.00
13732;BME280;6937;56.096;12.664;2023-03-04T08:08:39;101326.31;;;3.26;100.00
13732;BME280;6937;56.096;12.664;2023-03-04T08:11:11;101315.00;;;3.23;100.00
13732;BME280;6937;56.096;12.664;2023-03-04T08:13:37;101304.59;;;3.18;100.00
13732;BME280;6937;56.096;12.664;2023-03-04T08:16:03;101306.28;;;3.21;100.00
13732;BME280;6937;56.096;12.664;2023-03-04T08:18:28;101307.94;;;3.23;100.00
13732;BME280;6937;56.096;12.664;2023-03-04T08:20:54;101299.00;;;3.27;100.00
13732;BME280;6937;56.096;12.664;2023-03-04T08:23:20;101306.63;;;3.36;100.00
13732;BME280;6937;56.096;12.664;2023-03-04T08:25:45;101313.44;;;3.44;100.00
13732;BME280;6937;56.096;12.664;2023-03-04T08:28:12;101315.91;;;3.48;100.00
13732;BME280;6937;56.096;12.664;2023-03-04T08:30:39;101332.31;;;3.58;100.00
13732;BME280;6937;56.096;12.664;2023-03-04T08:33:05;101327.94;;;3.57;100.00
13732;BME280;6937;56.096;12.664;2023-03-04T08:35:31;101327.88;;;3.58;100.00
13732;BME280;6937;56.096;12.664;2023-03-04T08:37:56;101326.78;;;3.64;100.00
13732;BME280;6937;56.096;12.664;2023-03-04T08:40:22;101306.00;;;3.55;100.00
13732;BME280;6937;56.096;12.664;2023-03-04T08:42:50;101291.28;;;3.48;100.00
13732;BME280;6937;56.096;12.664;2023-03-04T08:45:15;101283.44;;;3.45;100.00
13732;BME280;6937;56.096;12.664;2023-03-04T08:47:41;101277.44;;;3.39;100.00
13732;BME280;6937;56.096;12.664;2023-03-04T08:50:07;101273.03;;;3.40;100.00
13732;BME280;6937;56.096;12.664;2023-03-04T08:52:32;101292.31;;;3.42;100.00
13732;BME280;6937;56.096;12.664;2023-03-04T08:54:58;101283.50;;;3.43;100.00
13732;BME280;6937;56.096;12.664;2023-03-04T08:57:23;101298.28;;;3.49;100.00
13732;BME280;6937;56.096;12.664;2023-03-04T08:59:48;101313.97;;;3.53;100.00
13732;BME280;6937;56.096;12.664;2023-03-04T09:02:14;101301.72;;;3.51;100.00
13732;BME280;6937;56.096;12.664;2023-03-04T09:04:39;101302.97;;;3.40;100.00
13732;BME280;6937;56.096;12.664;2023-03-04T09:07:04;101318.59;;;3.47;100.00
13732;BME280;6937;56.096;12.664;2023-03-04T09:09:30;101324.59;;;3.52;100.00
13732;BME280;6937;56.096;12.664;2023-03-04T09:11:56;101330.69;;;3.54;100.00
13732;BME280;6937;56.096;12.664;2023-03-04T09:14:21;101333.97;;;3.60;100.00
13732;BME280;6937;56.096;12.664;2023-03-04T09:16:46;101332.06;;;3.64;100.00
13732;BME280;6937;56.096;12.664;2023-03-04T09:19:12;101345.97;;;3.70;100.00
13732;BME280;6937;56.096;12.664;2023-03-04T09:21:37;101352.81;;;3.76;100.00
13732;BME280;6937;56.096;12.664;2023-03-04T09:24:03;101362.84;;;3.91;100.00
13732;BME280;6937;56.096;12.664;2023-03-04T09:26:28;101372.41;;;3.95;100.00
13732;BME280;6937;56.096;12.664;2023-03-04T09:28:56;101368.03;;;3.94;100.00
13732;BME280;6937;56.096;12.664;2023-03-04T09:31:22;101366.41;;;3.90;100.00
13732;BME280;6937;56.096;12.664;2023-03-04T09:33:48;101361.94;;;3.92;100.00
13732;BME280;6937;56.096;12.664;2023-03-04T09:36:14;101353.44;;;3.82;100.00
13732;BME280;6937;56.096;12.664;2023-03-04T09:38:40;101351.91;;;3.77;100.00
13732;BME280;6937;56.096;12.664;2023-03-04T09:41:13;101343.97;;;3.77;100.00
13732;BME280;6937;56.096;12.664;2023-03-04T09:43:40;101351.94;;;3.75;100.00
13732;BME280;6937;56.096;12.664;2023-03-04T09:46:10;101351.75;;;3.81;100.00
13732;BME280;6937;56.096;12.664;2023-03-04T09:48:49;101365.88;;;3.80;100.00
13732;BME280;6937;56.096;12.664;2023-03-04T09:51:30;101370.28;;;3.80;100.00
13732;BME280;6937;56.096;12.664;2023-03-04T09:56:40;101391.59;;;3.75;100.00
13732;BME280;6937;56.096;12.664;2023-03-04T09:59:16;101394.66;;;3.63;100.00
13732;BME280;6937;56.096;12.664;2023-03-04T10:01:53;101388.78;;;3.55;100.00
13732;BME280;6937;56.096;12.664;2023-03-04T10:04:29;101398.22;;;3.62;100.00
13732;BME280;6937;56.096;12.664;2023-03-04T10:06:57;101388.09;;;3.75;100.00
13732;BME280;6937;56.096;12.664;2023-03-04T10:09:26;101382.81;;;3.75;100.00
13732;BME280;6937;56.096;12.664;2023-03-04T10:12:02;101391.44;;;3.80;100.00
13732;BME280;6937;56.096;12.664;2023-03-04T10:17:35;101390.47;;;3.82;100.00
13732;BME280;6937;56.096;12.664;2023-03-04T10:20:11;101397.59;;;3.80;99.67
13732;BME280;6937;56.096;12.664;2023-03-04T10:22:44;101407.03;;;3.87;100.00
13732;BME280;6937;56.096;12.664;2023-03-04T10:25:24;101419.97;;;3.97;99.74
13732;BME280;6937;56.096;12.664;2023-03-04T10:27:56;101422.63;;;3.95;97.01
13732;BME280;6937;56.096;12.664;2023-03-04T10:31:01;101430.69;;;3.92;93.39
13732;BME280;6937;56.096;12.664;2023-03-04T10:33:32;101450.81;;;3.96;93.46
13732;BME280;6937;56.096;12.664;2023-03-04T10:38:43;101452.75;;;3.91;91.88
13732;BME280;6937;56.096;12.664;2023-03-04T10:41:14;101454.72;;;3.86;88.71
13732;BME280;6937;56.096;12.664;2023-03-04T10:43:40;101456.63;;;3.81;88.61
13732;BME280;6937;56.096;12.664;2023-03-04T10:46:10;101464.31;;;3.88;90.35
13732;BME280;6937;56.096;12.664;2023-03-04T10:48:36;101476.28;;;3.99;90.26
13732;BME280;6937;56.096;12.664;2023-03-04T10:51:17;101467.81;;;3.89;85.76
13732;BME280;6937;56.096;12.664;2023-03-04T10:53:46;101475.00;;;3.85;84.21
13732;BME280;6937;56.096;12.664;2023-03-04T10:59:28;101484.81;;;3.82;82.23
13732;BME280;6937;56.096;12.664;2023-03-04T11:01:55;101489.25;;;3.80;82.35
13732;BME280;6937;56.096;12.664;2023-03-04T11:04:25;101490.47;;;3.70;82.92
13732;BME280;6937;56.096;12.664;2023-03-04T11:06:51;101487.63;;;3.76;84.21
13732;BME280;6937;56.096;12.664;2023-03-04T11:09:23;101500.34;;;3.91;86.48
13732;BME280;6937;56.096;12.664;2023-03-04T11:11:51;101500.91;;;4.01;88.70
13732;BME280;6937;56.096;12.664;2023-03-04T11:14:56;101496.53;;;4.00;86.86
13732;BME280;6937;56.096;12.664;2023-03-04T11:17:26;101485.47;;;3.88;85.61
13732;BME280;6937;56.096;12.664;2023-03-04T11:20:06;101498.53;;;3.93;86.39
13732;BME280;6937;56.096;12.664;2023-03-04T11:22:36;101494.19;;;3.90;84.77
13732;BME280;6937;56.096;12.664;2023-03-04T11:25:06;101488.97;;;3.89;84.78
13732;BME280;6937;56.096;12.664;2023-03-04T11:27:41;101491.63;;;3.89;84.49
13732;BME280;6937;56.096;12.664;2023-03-04T11:30:34;101498.34;;;3.98;83.85
13732;BME280;6937;56.096;12.664;2023-03-04T11:33:09;101480.03;;;3.93;80.70
13732;BME280;6937;56.096;12.664;2023-03-04T11:38:31;101486.19;;;4.18;78.21
13732;BME280;6937;56.096;12.664;2023-03-04T11:41:00;101480.06;;;4.16;77.52
13732;BME280;6937;56.096;12.664;2023-03-04T11:43:33;101485.81;;;4.29;78.94
13732;BME280;6937;56.096;12.664;2023-03-04T11:54:22;101498.25;;;4.27;77.02
13732;BME280;6937;56.096;12.664;2023-03-04T11:57:00;101496.28;;;4.32;78.13
13732;BME280;6937;56.096;12.664;2023-03-04T12:02:19;101505.66;;;4.42;79.64
13732;BME280;6937;56.096;12.664;2023-03-04T12:05:22;101498.75;;;4.38;80.00
13732;BME280;6937;56.096;12.664;2023-03-04T12:08:07;101509.59;;;4.30;81.57
13732;BME280;6937;56.096;12.664;2023-03-04T12:22:14;101511.88;;;4.41;77.06
13732;BME280;6937;56.096;12.664;2023-03-04T12:29:47;101496.50;;;4.51;72.98
13732;BME280;6937;56.096;12.664;2023-03-04T12:35:13;101495.22;;;4.37;72.22
13732;BME280;6937;56.096;12.664;2023-03-04T12:38:09;101496.75;;;4.45;72.81
13732;BME280;6937;56.096;12.664;2023-03-04T12:46:03;101495.91;;;4.43;75.06
13732;BME280;6937;56.096;12.664;2023-03-04T12:48:42;101507.22;;;4.48;76.19
13732;BME280;6937;56.096;12.664;2023-03-04T12:56:27;101508.75;;;4.78;79.38
13732;BME280;6937;56.096;12.664;2023-03-04T12:58:57;101517.50;;;4.80;80.38
13732;BME280;6937;56.096;12.664;2023-03-04T13:01:48;101505.88;;;4.84;80.30
13732;BME280;6937;56.096;12.664;2023-03-04T13:07:13;101511.75;;;4.92;82.41
13732;BME280;6937;56.096;12.664;2023-03-04T13:10:06;101514.41;;;4.92;80.15
13732;BME280;6937;56.096;12.664;2023-03-04T13:12:52;101508.97;;;4.95;82.00
13732;BME280;6937;56.096;12.664;2023-03-04T13:15:31;101510.03;;;4.91;82.55
13732;BME280;6937;56.096;12.664;2023-03-04T13:18:29;101505.75;;;4.64;81.85
13732;BME280;6937;56.096;12.664;2023-03-04T13:23:35;101497.06;;;4.60;83.12
13732;BME280;6937;56.096;12.664;2023-03-04T13:28:33;101514.22;;;4.73;84.36
13732;BME280;6937;56.096;12.664;2023-03-04T13:36:04;101502.84;;;4.95;82.36
13732;BME280;6937;56.096;12.664;2023-03-04T13:38:36;101501.91;;;4.96;78.92
13732;BME280;6937;56.096;12.664;2023-03-04T13:41:15;101489.66;;;4.93;77.58
13732;BME280;6937;56.096;12.664;2023-03-04T13:43:49;101495.44;;;5.03;78.25
13732;BME280;6937;56.096;12.664;2023-03-04T13:51:38;101499.25;;;5.19;79.01
13732;BME280;6937;56.096;12.664;2023-03-04T13:54:25;101512.09;;;5.29;79.94
13732;BME280;6937;56.096;12.664;2023-03-04T14:04:36;101513.19;;;5.91;82.42
13732;BME280;6937;56.096;12.664;2023-03-04T14:10:19;101525.97;;;7.96;86.11
13732;BME280;6937;56.096;12.664;2023-03-04T14:12:49;101513.13;;;8.40;87.23
13732;BME280;6937;56.096;12.664;2023-03-04T14:15:27;101521.25;;;8.71;89.07
13732;BME280;6937;56.096;12.664;2023-03-04T14:17:55;101523.09;;;9.19;90.33
13732;BME280;6937;56.096;12.664;2023-03-04T14:20:27;101495.75;;;9.31;89.82
13732;BME280;6937;56.096;12.664;2023-03-04T14:22:55;101511.41;;;9.21;89.01
13732;BME280;6937;56.096;12.664;2023-03-04T14:25:23;101527.38;;;8.89;87.26
13732;BME280;6937;56.096;12.664;2023-03-04T14:27:49;101546.38;;;8.83;86.65